Terminal Aerodrome Forecast
Issued by NWS

Home | Current Version | Previous Version | Text Only | Print | Product List | Glossary On
Versions: 1 2 3 4 5 6 7 8 9 10 11 12 13
450
FTUS43 KMQT 271130
TAFIWD
TAF
KIWD 271130Z 2712/2812 36009KT 1 1/2SM -SN OVC004
     FM271700 32009KT 1SM -SN OVC008
     FM272000 28009KT 2SM -SN OVC008
     FM280000 27009KT P6SM OVC008
     FM280100 26009KT P6SM OVC010=

USA.gov is the U.S. government's official web portal to all federal, state and local government web resources and services.